createdAt,value
2023-05-06T11:34:07.160Z,11.68
2023-05-06T11:36:37.241Z,11.64
2023-05-06T11:39:11.010Z,11.60
2023-05-06T11:41:40.871Z,11.60
2023-05-06T11:44:11.573Z,11.60
2023-05-06T11:46:43.826Z,11.60
2023-05-06T11:49:15.235Z,11.60
2023-05-06T11:51:43.103Z,11.60
2023-05-06T11:54:12.087Z,11.60
2023-05-06T11:56:57.501Z,11.60
2023-05-06T11:59:40.255Z,11.50
2023-05-06T12:02:13.674Z,11.50
2023-05-06T12:04:44.950Z,11.50
2023-05-06T12:07:18.363Z,11.48
2023-05-06T12:09:49.812Z,11.40
2023-05-06T12:12:25.004Z,11.40
2023-05-06T12:14:54.068Z,11.40
2023-05-06T12:17:25.026Z,11.30
2023-05-06T12:20:03.807Z,11.30
2023-05-06T12:22:31.969Z,11.20
2023-05-06T12:25:14.157Z,11.10
2023-05-06T12:27:42.021Z,11.04
2023-05-06T12:30:13.291Z,11.00
2023-05-06T12:32:58.216Z,10.90
2023-05-06T12:35:28.671Z,10.80
2023-05-06T12:38:07.567Z,10.80
2023-05-06T12:40:35.947Z,10.82
2023-05-06T12:43:04.669Z,10.84
2023-05-06T12:45:33.374Z,10.90
2023-05-06T12:48:04.034Z,10.86
2023-05-06T12:50:43.426Z,10.80
2023-05-06T12:53:15.844Z,10.80
2023-05-06T12:55:45.895Z,10.70
2023-05-06T12:58:20.809Z,10.60
2023-05-06T13:00:48.718Z,10.66
2023-05-06T13:03:19.259Z,10.60
2023-05-06T13:05:50.338Z,10.58
2023-05-06T13:08:19.550Z,10.46
2023-05-06T13:10:47.663Z,10.30
2023-05-06T13:13:16.818Z,10.28
2023-05-06T13:15:44.812Z,10.20
2023-05-06T13:18:12.735Z,10.10
2023-05-06T13:20:40.918Z,10.10
2023-05-06T13:23:08.750Z,10.00
2023-05-06T13:25:44.920Z,10.00
2023-05-06T13:28:19.897Z,9.90
2023-05-06T13:30:48.246Z,9.90
2023-05-06T13:33:16.140Z,9.80
2023-05-06T13:35:43.948Z,9.74
2023-05-06T13:38:11.773Z,9.70
2023-05-06T13:40:39.676Z,9.60
2023-05-06T13:43:07.599Z,9.60
2023-05-06T13:45:36.119Z,9.50
2023-05-06T13:48:04.171Z,9.36
2023-05-06T13:50:32.359Z,9.30
2023-05-06T13:53:00.731Z,9.20
2023-05-06T13:55:29.984Z,9.10
2023-05-06T13:57:58.207Z,9.04
2023-05-06T14:00:26.206Z,9.10
2023-05-06T14:02:54.925Z,9.10
2023-05-06T14:05:23.211Z,9.20
2023-05-06T14:07:51.773Z,9.20
2023-05-06T14:10:21.129Z,9.20
2023-05-06T14:12:51.414Z,9.20
2023-05-06T14:15:19.463Z,9.10
2023-05-06T14:17:47.437Z,9.14
2023-05-06T14:20:15.478Z,9.10
2023-05-06T14:22:45.715Z,9.10
2023-05-06T14:25:14.658Z,9.10
2023-05-06T14:27:45.531Z,9.08
2023-05-06T14:30:15.931Z,9.00
2023-05-06T14:32:43.991Z,9.00
2023-05-06T14:35:12.219Z,8.90
2023-05-06T14:37:41.369Z,8.90
2023-05-06T14:40:10.237Z,8.90
2023-05-06T14:42:38.867Z,8.90
2023-05-06T14:45:08.739Z,8.94
2023-05-06T14:47:41.339Z,8.98
2023-05-06T14:50:11.033Z,8.90
2023-05-06T14:52:41.316Z,8.90
2023-05-06T14:55:11.333Z,8.90
2023-05-06T14:57:40.964Z,8.94
2023-05-06T15:00:12.714Z,8.92
2023-05-06T15:02:44.076Z,9.00
2023-05-06T15:05:13.982Z,9.00
2023-05-06T15:07:42.859Z,9.00
2023-05-06T15:10:11.471Z,8.98
2023-05-06T15:12:39.654Z,8.96
2023-05-06T15:15:08.776Z,8.90
2023-05-06T15:17:38.808Z,8.88
2023-05-06T15:20:09.308Z,8.84
2023-05-06T15:22:39.356Z,8.80
2023-05-06T15:25:12.293Z,8.80
2023-05-06T15:27:47.026Z,8.80
2023-05-06T15:30:15.828Z,8.80
2023-05-06T15:32:44.329Z,8.80
2023-05-06T15:35:13.267Z,8.80
2023-05-06T15:37:41.533Z,8.80
2023-05-06T15:40:14.500Z,8.70
2023-05-06T15:42:42.398Z,8.66
2023-05-06T15:45:12.200Z,8.60
2023-05-06T15:47:40.938Z,8.60
2023-05-06T15:50:24.724Z,8.60
2023-05-06T15:53:01.411Z,8.60
2023-05-06T15:55:30.283Z,8.50
2023-05-06T15:58:02.498Z,8.50
2023-05-06T16:00:32.231Z,8.50
2023-05-06T16:03:00.419Z,8.40
2023-05-06T16:05:28.403Z,8.40
2023-05-06T16:07:56.774Z,8.40
2023-05-06T16:10:25.874Z,8.30
2023-05-06T16:12:54.399Z,8.34
2023-05-06T16:15:22.324Z,8.32
2023-05-06T16:17:53.102Z,8.30
2023-05-06T16:20:20.979Z,8.30
2023-05-06T16:22:50.829Z,8.30
2023-05-06T16:25:18.833Z,8.30
2023-05-06T16:27:46.772Z,8.30
2023-05-06T16:30:15.156Z,8.30
2023-05-06T16:32:43.315Z,8.30
2023-05-06T16:35:11.643Z,8.30
2023-05-06T16:37:40.056Z,8.30
2023-05-06T16:40:11.446Z,8.30
2023-05-06T16:42:39.614Z,8.30
2023-05-06T16:45:09.551Z,8.30
2023-05-06T16:47:37.509Z,8.20
2023-05-06T16:50:06.949Z,8.20
2023-05-06T16:52:35.801Z,8.20
2023-05-06T16:55:04.071Z,8.20
2023-05-06T16:57:32.142Z,8.10
2023-05-06T17:00:01.972Z,8.10
2023-05-06T17:02:30.083Z,8.10
2023-05-06T17:04:58.332Z,8.00
2023-05-06T17:07:27.811Z,8.00
2023-05-06T17:09:55.750Z,8.00
2023-05-06T17:12:27.092Z,8.00
2023-05-06T17:14:55.075Z,8.00
2023-05-06T17:17:27.966Z,8.00
2023-05-06T17:19:57.752Z,7.94
2023-05-06T17:22:26.622Z,7.90
2023-05-06T17:24:54.635Z,7.90
2023-05-06T17:27:22.477Z,7.90
2023-05-06T17:29:50.524Z,7.90
2023-05-06T17:32:22.937Z,7.90
2023-05-06T17:34:52.104Z,7.90
2023-05-06T17:37:20.031Z,7.90
2023-05-06T17:39:47.932Z,7.90
2023-05-06T17:42:16.045Z,7.90
2023-05-06T17:44:44.116Z,7.80
2023-05-06T17:47:13.072Z,7.80
2023-05-06T17:49:41.192Z,7.80
2023-05-06T17:52:09.420Z,7.80
2023-05-06T17:54:38.722Z,7.80
2023-05-06T17:57:06.613Z,7.72
2023-05-06T17:59:35.966Z,7.70
2023-05-06T18:02:04.173Z,7.70
2023-05-06T18:04:32.266Z,7.60
2023-05-06T18:07:00.150Z,7.60
2023-05-06T18:09:28.026Z,7.60
2023-05-06T18:11:56.645Z,7.60
2023-05-06T18:14:24.560Z,7.60
2023-05-06T18:16:52.589Z,7.58
2023-05-06T18:19:21.077Z,7.60
2023-05-06T18:21:49.464Z,7.60
2023-05-06T18:24:17.370Z,7.60
2023-05-06T18:26:46.191Z,7.60
2023-05-06T18:29:14.439Z,7.60
2023-05-06T18:31:43.055Z,7.60
2023-05-06T18:34:11.241Z,7.50
2023-05-06T18:36:39.315Z,7.50
2023-05-06T18:39:08.900Z,7.50
2023-05-06T18:41:36.725Z,7.50
2023-05-06T18:44:07.539Z,7.50
2023-05-06T18:46:38.174Z,7.50
2023-05-06T18:49:08.097Z,7.50
2023-05-06T18:51:36.962Z,7.50
2023-05-06T18:54:05.052Z,7.48
2023-05-06T18:56:33.508Z,7.40
2023-05-06T18:59:01.556Z,7.40
2023-05-06T19:01:29.843Z,7.40
2023-05-06T19:03:58.393Z,7.40
2023-05-06T19:06:26.273Z,7.40
2023-05-06T19:08:54.517Z,7.38
2023-05-06T19:11:22.634Z,7.40
2023-05-06T19:13:52.183Z,7.40
2023-05-06T19:16:20.079Z,7.30
2023-05-06T19:18:48.099Z,7.30
2023-05-06T19:21:16.273Z,7.30
2023-05-06T19:23:45.146Z,7.22
2023-05-06T19:26:13.776Z,7.26
2023-05-06T19:28:41.686Z,7.20
2023-05-06T19:31:11.430Z,7.20
2023-05-06T19:33:40.420Z,7.20
2023-05-06T19:36:09.274Z,7.20
2023-05-06T19:38:38.308Z,7.14
2023-05-06T19:41:07.309Z,7.14
2023-05-06T19:43:42.212Z,7.10
2023-05-06T19:46:11.576Z,7.10
2023-05-06T19:48:39.570Z,7.10
2023-05-06T19:51:10.695Z,7.10
2023-05-06T19:53:38.582Z,7.10
2023-05-06T19:56:14.516Z,7.10
2023-05-06T19:58:43.103Z,7.10
2023-05-06T20:01:14.742Z,7.10
2023-05-06T20:03:42.876Z,7.10
2023-05-06T20:06:11.096Z,7.10
2023-05-06T20:08:42.019Z,7.16
2023-05-06T20:11:10.344Z,7.20
2023-05-06T20:13:38.485Z,7.20
2023-05-06T20:16:06.981Z,7.20
2023-05-06T20:18:35.660Z,7.20
2023-05-06T20:21:03.801Z,7.10
2023-05-06T20:23:31.715Z,7.10
2023-05-06T20:25:59.888Z,7.10
2023-05-06T20:28:28.401Z,7.12
2023-05-06T20:31:00.705Z,7.14
2023-05-06T20:33:28.799Z,7.18
2023-05-06T20:35:58.027Z,7.20
2023-05-06T20:38:27.345Z,7.20
2023-05-06T20:40:55.500Z,7.20
2023-05-06T20:43:25.528Z,7.20
2023-05-06T20:45:53.367Z,7.20
2023-05-06T20:48:23.725Z,7.20
2023-05-06T20:50:54.204Z,7.20
2023-05-06T20:53:23.691Z,7.20
2023-05-06T20:55:53.201Z,7.14
2023-05-06T20:58:23.969Z,7.14
2023-05-06T21:00:54.272Z,7.10
2023-05-06T21:03:22.649Z,7.10
2023-05-06T21:05:52.713Z,7.10
2023-05-06T21:08:20.858Z,7.10
2023-05-06T21:10:48.677Z,7.10
2023-05-06T21:13:19.862Z,7.10
2023-05-06T21:15:48.155Z,7.10
2023-05-06T21:18:17.000Z,7.04
2023-05-06T21:20:45.346Z,7.06
2023-05-06T21:23:13.433Z,7.00
2023-05-06T21:25:41.555Z,7.00
2023-05-06T21:28:11.635Z,7.00
2023-05-06T21:30:42.005Z,7.00
2023-05-06T21:33:11.471Z,7.00
2023-05-06T21:35:39.640Z,7.00
2023-05-06T21:38:07.586Z,7.00
2023-05-06T21:40:35.543Z,7.00
2023-05-06T21:43:03.557Z,7.10
2023-05-06T21:45:31.430Z,7.10
2023-05-06T21:48:00.616Z,7.10
2023-05-06T21:50:28.501Z,7.02
2023-05-06T21:52:56.331Z,7.00
2023-05-06T21:55:27.794Z,7.00
2023-05-06T21:57:55.829Z,7.00
2023-05-06T22:00:24.949Z,6.98
2023-05-06T22:02:54.720Z,6.90
2023-05-06T22:05:23.013Z,6.90
2023-05-06T22:07:52.817Z,6.90
2023-05-06T22:10:21.895Z,6.90
2023-05-06T22:12:53.308Z,6.90
2023-05-06T22:15:26.498Z,6.90
2023-05-06T22:17:59.289Z,6.90
2023-05-06T22:20:27.932Z,6.90
2023-05-06T22:22:56.195Z,6.86
2023-05-06T22:25:24.795Z,6.80
2023-05-06T22:27:53.021Z,6.80
2023-05-06T22:30:21.841Z,6.80
2023-05-06T22:32:49.699Z,6.82
2023-05-06T22:35:17.904Z,6.80
2023-05-06T22:37:48.133Z,6.80
2023-05-06T22:40:16.211Z,6.80
2023-05-06T22:42:44.144Z,6.74
2023-05-06T22:45:12.319Z,6.70
2023-05-06T22:47:41.106Z,6.70
2023-05-06T22:50:10.029Z,6.70
2023-05-06T22:52:38.378Z,6.70
2023-05-06T22:55:09.861Z,6.70
2023-05-06T22:57:38.304Z,6.68
2023-05-06T23:00:10.937Z,6.70
2023-05-06T23:02:39.010Z,6.70
2023-05-06T23:05:07.451Z,6.70
2023-05-06T23:07:35.335Z,6.70
2023-05-06T23:10:03.612Z,6.70
2023-05-06T23:12:35.321Z,6.70
2023-05-06T23:15:03.834Z,6.70
2023-05-06T23:17:32.026Z,6.70
2023-05-06T23:20:00.264Z,6.70
2023-05-06T23:22:28.328Z,6.70
2023-05-06T23:24:57.279Z,6.80
2023-05-06T23:27:25.198Z,6.80
2023-05-06T23:29:53.265Z,6.80
2023-05-06T23:32:21.218Z,6.70
2023-05-06T23:34:49.714Z,6.70
2023-05-06T23:37:17.707Z,6.70
2023-05-06T23:39:47.074Z,6.70
2023-05-06T23:42:15.050Z,6.70
2023-05-06T23:44:43.023Z,6.70
2023-05-06T23:47:11.906Z,6.70
2023-05-06T23:49:39.650Z,6.70
2023-05-06T23:52:07.601Z,6.70
2023-05-06T23:54:35.569Z,6.60
2023-05-06T23:57:03.785Z,6.60
2023-05-06T23:59:35.143Z,6.50
